Time;durP1;ratioP1;P1;durP2;ratioP2;P2;SDS_P1;SDS_P2;PMS_P1;PMS_P2;Temp;Humidity;BMP_temperature;BMP_pressure;BME280_temperature;BME280_humidity;BME280_pressure;Samples;Min_cycle;Max_cycle;Signal;HPM_P1;HPM_P2
2022/11/19 00:00:41;;;;;;;;;;;;;;;21.69;47.44;100872.00;5089420;28;4183;-65
2022/11/19 00:03:08;;;;;;;;;;;;;;;21.69;47.12;100867.00;5085775;28;4119;-65
2022/11/19 00:05:38;;;;;;;;;;;;;;;21.67;47.30;100866.91;5079188;28;4138;-65
2022/11/19 00:08:04;;;;;;;;;;;;;;;21.70;47.41;100873.50;5088729;28;4174;-65
2022/11/19 00:10:32;;;;;;;;;;;;;;;21.69;47.16;100875.66;5089103;28;4292;-65
2022/11/19 00:12:58;;;;;;;;;;;;;;;21.73;47.45;100866.41;5090244;28;4131;-65
2022/11/19 00:15:24;;;;;;;;;;;;;;;21.77;47.23;100871.63;5088190;28;4256;-65
2022/11/19 00:17:51;;;;;;;;;;;;;;;21.78;47.46;100870.19;5089210;28;5279;-65
2022/11/19 00:20:17;;;;;;;;;;;;;;;21.78;47.39;100875.97;5095998;28;4262;-66
2022/11/19 00:22:44;;;;;;;;;;;;;;;21.74;47.54;100874.41;5092381;28;4190;-65
2022/11/19 00:25:10;;;;;;;;;;;;;;;21.72;47.57;100877.22;5097074;28;4172;-65
2022/11/19 00:27:36;;;;;;;;;;;;;;;21.70;47.70;100873.50;5087546;28;5268;-65
2022/11/19 00:30:03;;;;;;;;;;;;;;;21.66;47.30;100874.06;5087673;28;4117;-65
2022/11/19 00:32:45;;;;;;;;;;;;;;;21.65;47.34;100874.75;5080013;28;5176;-65
2022/11/19 00:35:11;;;;;;;;;;;;;;;21.66;47.36;100874.06;5079439;28;4161;-65
2022/11/19 00:37:38;;;;;;;;;;;;;;;21.65;47.33;100872.59;5074486;28;4127;-64
2022/11/19 00:40:06;;;;;;;;;;;;;;;21.65;47.63;100881.25;5080001;28;4094;-65
2022/11/19 00:42:35;;;;;;;;;;;;;;;21.69;47.54;100883.53;5079575;28;5211;-65
2022/11/19 00:45:02;;;;;;;;;;;;;;;21.70;47.67;100880.00;5074944;28;4218;-65
2022/11/19 00:47:28;;;;;;;;;;;;;;;21.69;47.46;100887.19;5074042;28;4135;-65
2022/11/19 00:49:55;;;;;;;;;;;;;;;21.66;47.17;100897.13;5081945;28;4197;-65
2022/11/19 00:52:21;;;;;;;;;;;;;;;21.67;47.28;100889.97;5079373;28;4117;-65
2022/11/19 00:54:47;;;;;;;;;;;;;;;21.66;47.21;100894.25;5077016;28;4197;-65
2022/11/19 00:57:14;;;;;;;;;;;;;;;21.65;47.48;100892.78;5079818;28;4031;-65
2022/11/19 00:59:40;;;;;;;;;;;;;;;21.65;47.38;100897.78;5079767;28;5258;-65
2022/11/19 01:02:06;;;;;;;;;;;;;;;21.64;47.37;100893.41;5081862;28;3991;-65
2022/11/19 01:04:33;;;;;;;;;;;;;;;21.64;47.30;100899.91;5078616;28;5361;-65
2022/11/19 01:06:59;;;;;;;;;;;;;;;21.64;47.25;100899.91;5077715;28;5115;-65
2022/11/19 01:09:28;;;;;;;;;;;;;;;21.62;47.40;100901.97;5079998;28;4459;-65
2022/11/19 01:11:54;;;;;;;;;;;;;;;21.63;47.58;100898.44;5069383;28;4170;-66
2022/11/19 01:14:20;;;;;;;;;;;;;;;21.63;47.31;100891.94;5080535;28;4184;-65
2022/11/19 01:16:47;;;;;;;;;;;;;;;21.64;47.15;100908.56;5077743;28;5132;-64
2022/11/19 01:19:15;;;;;;;;;;;;;;;21.65;47.39;100895.66;5080908;28;4232;-65
2022/11/19 01:21:42;;;;;;;;;;;;;;;21.62;47.42;100902.72;5077819;28;4002;-65
2022/11/19 01:24:08;;;;;;;;;;;;;;;21.66;47.29;100897.13;5081310;28;3996;-65
2022/11/19 01:26:34;;;;;;;;;;;;;;;21.63;47.37;100886.19;5080553;28;5182;-64
2022/11/19 01:29:02;;;;;;;;;;;;;;;21.64;47.11;100899.91;5076451;28;5347;-65
2022/11/19 01:31:28;;;;;;;;;;;;;;;21.61;47.36;100907.00;5072679;28;5155;-65
2022/11/19 01:33:54;;;;;;;;;;;;;;;21.60;47.34;100899.78;5079535;28;4337;-65
2022/11/19 01:36:21;;;;;;;;;;;;;;;21.58;47.09;100896.78;5071981;28;5207;-65
2022/11/19 01:38:51;;;;;;;;;;;;;;;21.60;47.22;100899.78;5078451;28;3931;-65
2022/11/19 01:41:17;;;;;;;;;;;;;;;21.59;46.93;100898.28;5072557;28;4122;-65
2022/11/19 01:43:45;;;;;;;;;;;;;;;21.59;47.38;100904.03;5063179;28;4113;-66
2022/11/19 01:46:12;;;;;;;;;;;;;;;21.58;47.28;100901.81;5075298;28;3918;-65
2022/11/19 01:48:39;;;;;;;;;;;;;;;21.62;47.13;100901.97;5080423;28;4122;-65
2022/11/19 01:51:14;;;;;;;;;;;;;;;21.64;47.25;100899.19;5080881;28;4942;-65
2022/11/19 01:53:48;;;;;;;;;;;;;;;21.64;47.28;100894.16;5069735;28;5237;-65
2022/11/19 01:56:14;;;;;;;;;;;;;;;21.63;47.05;100903.47;5059121;28;3980;-65
2022/11/19 01:58:44;;;;;;;;;;;;;;;21.63;47.12;100906.34;5044579;28;3989;-65
2022/11/19 02:01:14;;;;;;;;;;;;;;;21.61;47.48;100909.88;5045192;28;4065;-66
2022/11/19 02:03:40;;;;;;;;;;;;;;;21.61;47.02;100906.28;5036929;28;4056;-65
2022/11/19 02:06:07;;;;;;;;;;;;;;;21.58;47.28;100919.84;5067639;28;4078;-65
2022/11/19 02:08:42;;;;;;;;;;;;;;;21.56;47.39;100916.88;5073396;28;4108;-65
2022/11/19 02:11:16;;;;;;;;;;;;;;;21.55;47.10;100921.16;5085559;28;4204;-65
2022/11/19 02:13:45;;;;;;;;;;;;;;;21.57;46.91;100929.88;5068248;28;4108;-65
2022/11/19 02:16:24;;;;;;;;;;;;;;;21.56;47.08;100934.16;5066627;28;4088;-66
2022/11/19 02:18:54;;;;;;;;;;;;;;;21.59;47.01;100940.75;5063140;28;4005;-64
2022/11/19 02:21:26;;;;;;;;;;;;;;;21.57;47.08;100940.66;5056006;28;4159;-65
2022/11/19 02:23:59;;;;;;;;;;;;;;;21.55;47.23;100944.19;5068540;28;4199;-64
2022/11/19 02:26:28;;;;;;;;;;;;;;;21.58;47.00;100942.91;5064865;28;3967;-65
2022/11/19 02:29:01;;;;;;;;;;;;;;;21.59;47.36;100938.63;5061389;28;5403;-65
2022/11/19 02:31:40;;;;;;;;;;;;;;;21.59;46.91;100935.72;5077914;28;4062;-65
2022/11/19 02:34:11;;;;;;;;;;;;;;;21.58;46.98;100931.38;5079367;28;4130;-65
2022/11/19 02:36:47;;;;;;;;;;;;;;;21.59;47.23;100920.59;5080318;28;5332;-65
2022/11/19 02:39:14;;;;;;;;;;;;;;;21.57;47.07;100908.97;5066031;28;6463;-66
2022/11/19 02:41:43;;;;;;;;;;;;;;;21.56;47.06;100916.16;5064687;28;4218;-65
2022/11/19 02:46:55;;;;;;;;;;;;;;;21.51;46.93;100909.47;5081398;28;4186;-65
2022/11/19 02:49:22;;;;;;;;;;;;;;;21.50;46.88;100913.72;5077836;28;4090;-65
2022/11/19 02:51:48;;;;;;;;;;;;;;;21.54;46.90;100917.53;5069502;28;4140;-65
2022/11/19 02:54:15;;;;;;;;;;;;;;;21.56;47.09;100910.38;5080238;28;4844;-65
2022/11/19 02:56:46;;;;;;;;;;;;;;;21.56;46.87;100916.88;5076312;28;5177;-65
2022/11/19 03:04:42;;;;;;;;;;;;;;;21.59;46.84;100909.06;5080056;28;4128;-65
2022/11/19 03:07:12;;;;;;;;;;;;;;;21.58;47.03;100919.84;5083427;28;4135;-65
2022/11/19 03:09:40;;;;;;;;;;;;;;;21.56;47.10;100916.88;5082379;28;4926;-64
2022/11/19 03:12:17;;;;;;;;;;;;;;;21.55;47.21;100924.03;5075991;28;5441;-65
2022/11/19 03:17:39;;;;;;;;;;;;;;;21.50;47.01;100920.22;5068515;28;5313;-65
2022/11/19 03:20:05;;;;;;;;;;;;;;;21.50;47.15;100925.25;5066271;28;4163;-65
2022/11/19 03:22:33;;;;;;;;;;;;;;;21.53;47.12;100923.94;5075725;28;5233;-65
2022/11/19 03:25:05;;;;;;;;;;;;;;;21.53;46.83;100929.69;5053452;28;5271;-64
2022/11/19 03:27:37;;;;;;;;;;;;;;;21.51;47.17;100927.50;5065577;28;5379;-65
2022/11/19 03:30:04;;;;;;;;;;;;;;;21.54;46.78;100919.66;5063545;28;4026;-65
2022/11/19 03:32:33;;;;;;;;;;;;;;;21.53;46.72;100923.94;5078659;28;4262;-64
2022/11/19 03:35:00;;;;;;;;;;;;;;;21.50;46.80;100925.25;5069125;28;4482;-65
2022/11/19 03:37:27;;;;;;;;;;;;;;;21.51;46.66;100921.72;5061960;28;5210;-65
2022/11/19 03:39:54;;;;;;;;;;;;;;;21.54;46.93;100931.19;5080967;28;4225;-65
2022/11/19 03:42:21;;;;;;;;;;;;;;;21.55;47.11;100926.91;5068674;28;4155;-65
2022/11/19 03:44:48;;;;;;;;;;;;;;;21.57;46.67;100941.41;5078528;28;6515;-65
2022/11/19 03:47:15;;;;;;;;;;;;;;;21.58;46.79;100931.38;5067409;28;4248;-64
2022/11/19 03:49:43;;;;;;;;;;;;;;;21.58;46.68;100940.03;5078244;28;4391;-65
2022/11/19 03:52:10;;;;;;;;;;;;;;;21.59;46.84;100937.88;5080016;28;4155;-65
2022/11/19 03:54:37;;;;;;;;;;;;;;;21.62;46.71;100936.56;5080698;28;5244;-64
2022/11/19 03:57:04;;;;;;;;;;;;;;;21.59;46.83;100946.53;5067279;28;4254;-65
2022/11/19 03:59:30;;;;;;;;;;;;;;;21.58;47.06;100948.66;5078081;28;4115;-65
2022/11/19 04:01:57;;;;;;;;;;;;;;;21.56;46.74;100957.22;5079456;28;5242;-64
2022/11/19 04:04:36;;;;;;;;;;;;;;;21.56;46.52;100951.47;5076213;28;5439;-65
2022/11/19 04:07:03;;;;;;;;;;;;;;;21.56;46.78;100957.22;5078670;28;4176;-65
2022/11/19 04:09:29;;;;;;;;;;;;;;;21.54;46.89;100954.97;5080595;28;5678;-65
2022/11/19 04:11:56;;;;;;;;;;;;;;;21.52;47.03;100957.03;5079472;28;4192;-65
2022/11/19 04:14:22;;;;;;;;;;;;;;;21.52;46.85;100945.50;5076622;28;4093;-64
2022/11/19 04:16:48;;;;;;;;;;;;;;;21.53;46.70;100955.63;5079182;28;5216;-65
2022/11/19 04:19:16;;;;;;;;;;;;;;;21.52;46.64;100954.91;5077302;28;4246;-64
2022/11/19 04:21:43;;;;;;;;;;;;;;;21.53;46.79;100952.75;5081009;28;5283;-65
2022/11/19 04:24:09;;;;;;;;;;;;;;;21.50;46.83;100949.03;5081991;27;5596;-64
2022/11/19 04:26:36;;;;;;;;;;;;;;;21.51;46.82;100950.53;5078645;28;4113;-65
2022/11/19 04:29:02;;;;;;;;;;;;;;;21.54;46.57;100939.84;5083869;28;4183;-65
2022/11/19 04:31:28;;;;;;;;;;;;;;;21.54;46.72;100937.69;5080844;28;5185;-64
2022/11/19 04:33:55;;;;;;;;;;;;;;;21.53;46.42;100935.47;5077824;28;5361;-64
2022/11/19 04:36:21;;;;;;;;;;;;;;;21.53;46.67;100935.47;5078868;28;4157;-65
2022/11/19 04:38:48;;;;;;;;;;;;;;;21.55;46.53;100935.56;5079844;28;4284;-64
2022/11/19 04:41:14;;;;;;;;;;;;;;;21.56;46.60;100933.44;5079868;28;4149;-65
2022/11/19 04:43:40;;;;;;;;;;;;;;;21.57;46.65;100941.41;5077522;28;5353;-65
2022/11/19 04:46:06;;;;;;;;;;;;;;;21.56;46.82;100937.06;5082289;28;4303;-64
2022/11/19 04:48:33;;;;;;;;;;;;;;;21.57;46.46;100944.28;5074938;28;5348;-65
2022/11/19 04:50:59;;;;;;;;;;;;;;;21.56;46.44;100942.81;5080907;28;4176;-65
2022/11/19 04:53:25;;;;;;;;;;;;;;;21.55;46.87;100932.66;5074508;28;5264;-65
2022/11/19 04:55:52;;;;;;;;;;;;;;;21.54;46.57;100931.19;5074212;28;4103;-64
2022/11/19 04:58:18;;;;;;;;;;;;;;;21.53;46.47;100929.69;5070200;28;5212;-65
2022/11/19 05:00:44;;;;;;;;;;;;;;;21.51;46.67;100932.53;5089311;28;4167;-65
2022/11/19 05:03:11;;;;;;;;;;;;;;;21.49;46.87;100929.56;5087138;28;4207;-65
2022/11/19 05:05:37;;;;;;;;;;;;;;;21.51;46.66;100930.38;5090457;28;4337;-65
2022/11/19 05:08:03;;;;;;;;;;;;;;;21.50;46.46;100928.13;5085343;28;4210;-64
2022/11/19 05:10:30;;;;;;;;;;;;;;;21.50;46.65;100931.75;5081796;28;4100;-64
2022/11/19 05:12:56;;;;;;;;;;;;;;;21.52;46.64;100931.09;5092657;28;5250;-65
2022/11/19 05:15:22;;;;;;;;;;;;;;;21.51;46.48;100921.00;5090697;28;4123;-65
2022/11/19 05:17:49;;;;;;;;;;;;;;;21.53;46.62;100921.06;5085032;28;4112;-65
2022/11/19 05:20:15;;;;;;;;;;;;;;;21.54;46.44;100934.09;5090941;28;4057;-64
2022/11/19 05:22:41;;;;;;;;;;;;;;;21.55;46.41;100926.91;5093357;28;5247;-65
2022/11/19 05:25:08;;;;;;;;;;;;;;;21.52;46.71;100928.22;5079337;28;4133;-65
2022/11/19 05:27:34;;;;;;;;;;;;;;;21.55;46.38;100915.38;5075698;28;4109;-65
2022/11/19 05:30:00;;;;;;;;;;;;;;;21.54;46.30;100922.56;5073867;28;3933;-65
2022/11/19 05:32:27;;;;;;;;;;;;;;;21.56;46.32;100916.88;5088572;28;4173;-65
2022/11/19 05:34:53;;;;;;;;;;;;;;;21.57;46.67;100918.34;5082766;28;5060;-64
2022/11/19 05:37:19;;;;;;;;;;;;;;;21.57;46.61;100921.22;5070095;28;4152;-64
2022/11/19 05:39:46;;;;;;;;;;;;;;;21.57;46.55;100921.22;5077579;28;4269;-65
2022/11/19 05:42:12;;;;;;;;;;;;;;;21.55;46.49;100921.16;5087387;28;4037;-65
2022/11/19 05:44:38;;;;;;;;;;;;;;;21.54;46.45;100919.66;5087664;28;4230;-64
2022/11/19 05:47:05;;;;;;;;;;;;;;;21.52;46.80;100916.72;5092565;28;4049;-65
2022/11/19 05:49:31;;;;;;;;;;;;;;;21.51;46.67;100909.47;5084382;28;5334;-65
2022/11/19 05:51:57;;;;;;;;;;;;;;;21.50;46.58;100907.97;5095684;28;4165;-65
2022/11/19 05:54:24;;;;;;;;;;;;;;;21.51;46.24;100909.47;5088880;28;4166;-64
2022/11/19 05:56:50;;;;;;;;;;;;;;;21.51;46.29;100910.22;5080415;28;5273;-65
2022/11/19 05:59:16;;;;;;;;;;;;;;;21.50;46.46;100913.72;5087706;28;5188;-65
2022/11/19 06:01:43;;;;;;;;;;;;;;;21.51;46.63;100912.34;5090359;28;5397;-65
2022/11/19 06:04:10;;;;;;;;;;;;;;;21.48;46.36;100910.75;5081099;28;5307;-65
2022/11/19 06:06:36;;;;;;;;;;;;;;;21.51;46.34;100921.72;5086934;28;4229;-65
2022/11/19 06:09:02;;;;;;;;;;;;;;;21.36;45.12;100924.63;5084924;28;4136;-65
2022/11/19 06:11:47;;;;;;;;;;;;;;;21.38;44.50;100925.44;5085960;28;5110;-64
2022/11/19 06:14:13;;;;;;;;;;;;;;;21.45;44.58;100932.25;5085833;28;4123;-65
2022/11/19 06:16:40;;;;;;;;;;;;;;;21.47;45.55;100933.06;5077303;28;4191;-64
2022/11/19 06:19:06;;;;;;;;;;;;;;;21.49;45.81;100930.28;5083961;28;4160;-65
2022/11/19 06:21:32;;;;;;;;;;;;;;;21.48;45.56;100928.78;5096764;28;4267;-64
2022/11/19 06:23:59;;;;;;;;;;;;;;;21.51;45.90;100929.63;5082983;28;4179;-64
2022/11/19 06:26:26;;;;;;;;;;;;;;;21.50;45.97;100931.03;5077730;28;4118;-64
2022/11/19 06:28:52;;;;;;;;;;;;;;;21.51;46.33;100938.28;5077472;28;5216;-65
2022/11/19 06:31:19;;;;;;;;;;;;;;;21.51;46.17;100923.88;5082507;28;4149;-65
2022/11/19 06:33:45;;;;;;;;;;;;;;;21.50;46.24;100933.91;5083076;28;4184;-64
2022/11/19 06:36:11;;;;;;;;;;;;;;;21.49;46.00;100932.44;5077551;28;4366;-64
2022/11/19 06:38:39;;;;;;;;;;;;;;;21.46;46.21;100930.84;5085078;28;4403;-64
2022/11/19 06:41:05;;;;;;;;;;;;;;;21.47;46.36;100938.09;5082166;28;4966;-64
2022/11/19 06:43:31;;;;;;;;;;;;;;;21.46;46.20;100936.59;5091641;28;4291;-65
2022/11/19 06:45:58;;;;;;;;;;;;;;;21.44;46.15;100927.88;5092640;28;4173;-64
2022/11/19 06:48:24;;;;;;;;;;;;;;;21.47;46.20;100927.31;5089777;28;4095;-65
2022/11/19 06:50:51;;;;;;;;;;;;;;;21.47;45.91;100929.47;5087389;28;4119;-65
2022/11/19 06:53:17;;;;;;;;;;;;;;;21.44;46.06;100927.88;5072756;28;4222;-64
2022/11/19 06:55:43;;;;;;;;;;;;;;;21.49;46.10;100932.44;5083006;28;4414;-65
2022/11/19 06:58:10;;;;;;;;;;;;;;;21.47;45.88;100932.34;5086067;28;5629;-64
2022/11/19 07:00:36;;;;;;;;;;;;;;;21.48;45.84;100928.06;5089062;28;5312;-64
2022/11/19 07:03:02;;;;;;;;;;;;;;;21.46;45.80;100927.97;5093035;28;4157;-64
2022/11/19 07:05:28;;;;;;;;;;;;;;;21.45;45.89;100935.13;5092025;27;4138;-64
2022/11/19 07:07:55;;;;;;;;;;;;;;;21.46;45.72;100925.84;5092246;28;5372;-65
2022/11/19 07:10:28;;;;;;;;;;;;;;;21.46;46.06;100910.69;5091549;28;3960;-65
2022/11/19 07:12:54;;;;;;;;;;;;;;;21.47;45.76;100926.56;5093222;28;4198;-65
2022/11/19 07:15:21;;;;;;;;;;;;;;;21.48;45.70;100925.16;5092656;28;3886;-65
2022/11/19 07:17:47;;;;;;;;;;;;;;;21.46;46.02;100927.97;5087217;28;4019;-64
2022/11/19 07:20:14;;;;;;;;;;;;;;;21.46;46.03;100936.59;5092174;28;4803;-65
2022/11/19 07:22:41;;;;;;;;;;;;;;;21.43;46.11;100932.16;5073180;28;5275;-65
2022/11/19 07:25:08;;;;;;;;;;;;;;;21.41;46.09;100946.47;5091609;28;5415;-65
2022/11/19 07:27:34;;;;;;;;;;;;;;;21.40;45.99;100930.56;5076375;28;3944;-64
2022/11/19 07:30:03;;;;;;;;;;;;;;;21.40;45.96;100939.97;5085312;28;4048;-64
2022/11/19 07:32:29;;;;;;;;;;;;;;;21.43;46.15;100943.69;5088759;28;4138;-65
2022/11/19 07:34:55;;;;;;;;;;;;;;;21.46;45.97;100933.72;5078076;28;4483;-64
2022/11/19 07:37:22;;;;;;;;;;;;;;;21.40;46.46;100921.94;5078923;28;5248;-64
2022/11/19 07:39:48;;;;;;;;;;;;;;;21.44;46.00;100917.09;5079104;28;4184;-65
2022/11/19 07:45:06;;;;;;;;;;;;;;;21.47;45.79;100909.28;5091596;28;5039;-65
2022/11/19 07:47:33;;;;;;;;;;;;;;;21.47;45.33;100927.31;5093507;28;5523;-64
2022/11/19 07:49:59;;;;;;;;;;;;;;;21.45;46.19;100921.47;5095489;28;5193;-64
2022/11/19 07:52:25;;;;;;;;;;;;;;;21.44;46.32;100925.00;5090599;28;5319;-66
2022/11/19 07:54:52;;;;;;;;;;;;;;;21.41;46.26;100923.44;5082305;28;4073;-65
2022/11/19 07:57:18;;;;;;;;;;;;;;;21.46;45.71;100919.31;5076617;28;4177;-65
2022/11/19 07:59:44;;;;;;;;;;;;;;;21.45;46.07;100929.38;5081964;28;4483;-65
2022/11/19 08:02:11;;;;;;;;;;;;;;;21.52;47.47;100922.47;5075121;28;4113;-57
2022/11/19 08:04:37;;;;;;;;;;;;;;;21.56;46.94;100922.66;5059407;28;4170;-63
2022/11/19 08:07:04;;;;;;;;;;;;;;;21.46;45.80;100920.06;5071593;28;5230;-57
2022/11/19 08:09:31;;;;;;;;;;;;;;;21.58;46.04;100902.56;5068603;28;5178;-57
2022/11/19 08:11:57;;;;;;;;;;;;;;;21.78;46.16;100913.44;5077177;28;4009;-58
2022/11/19 08:14:24;;;;;;;;;;;;;;;21.87;46.09;100904.47;5074495;28;5308;-61
2022/11/19 08:19:35;;;;;;;;;;;;;;;21.70;44.61;100900.19;5077326;28;4141;-63
2022/11/19 08:22:01;;;;;;;;;;;;;;;21.69;44.81;100895.81;5090118;28;4090;-58
2022/11/19 08:24:28;;;;;;;;;;;;;;;20.61;41.43;100899.72;5071945;28;5214;-58
2022/11/19 08:26:54;;;;;;;;;;;;;;;20.60;41.83;100904.75;5080555;28;4179;-56
2022/11/19 08:29:22;;;;;;;;;;;;;;;21.16;44.60;100893.53;5065865;28;5261;-61
2022/11/19 08:31:48;;;;;;;;;;;;;;;21.37;44.24;100900.16;5074933;28;4014;-61
2022/11/19 08:34:15;;;;;;;;;;;;;;;21.26;43.81;100896.88;5088357;28;4166;-56
2022/11/19 08:36:42;;;;;;;;;;;;;;;21.34;44.20;100902.97;5090227;28;4209;-59
2022/11/19 08:39:08;;;;;;;;;;;;;;;21.45;44.55;100903.44;5093228;28;4235;-60
2022/11/19 08:44:19;;;;;;;;;;;;;;;21.45;45.09;100894.81;5086437;28;5443;-61
2022/11/19 08:46:46;;;;;;;;;;;;;;;21.49;45.55;100889.22;5076137;28;5416;-58
2022/11/19 08:49:13;;;;;;;;;;;;;;;21.49;45.43;100883.44;5082779;28;5201;-60
2022/11/19 08:51:39;;;;;;;;;;;;;;;21.49;45.64;100886.34;5082336;28;5482;-59
2022/11/19 08:54:05;;;;;;;;;;;;;;;21.50;45.97;100882.78;5078770;28;4263;-61
2022/11/19 08:56:32;;;;;;;;;;;;;;;21.53;45.69;100883.59;5078841;28;4153;-60
2022/11/19 08:58:58;;;;;;;;;;;;;;;21.54;45.64;100891.59;5077902;28;4088;-58
2022/11/19 09:01:28;;;;;;;;;;;;;;;21.53;45.67;100889.38;5080775;28;4163;-60
2022/11/19 09:03:54;;;;;;;;;;;;;;;21.58;45.96;100893.91;5078179;28;5418;-60
2022/11/19 09:06:20;;;;;;;;;;;;;;;21.61;45.95;100889.72;5082964;28;4035;-56
2022/11/19 09:08:47;;;;;;;;;;;;;;;21.63;45.82;100886.91;5079984;28;4170;-61
2022/11/19 09:11:14;;;;;;;;;;;;;;;21.42;45.76;100890.34;5074350;28;4116;-58
2022/11/19 09:13:40;;;;;;;;;;;;;;;21.12;43.84;100882.59;5075859;28;4268;-60
2022/11/19 09:16:07;;;;;;;;;;;;;;;21.21;44.77;100892.34;5075554;28;4449;-62
2022/11/19 09:18:37;;;;;;;;;;;;;;;21.49;44.90;100889.22;5072516;28;4199;-66
2022/11/19 09:21:04;;;;;;;;;;;;;;;21.42;45.73;100899.72;5066573;28;4480;-68
2022/11/19 09:23:30;;;;;;;;;;;;;;;21.44;45.63;100899.06;5067158;28;5134;-68
2022/11/19 09:26:00;;;;;;;;;;;;;;;21.46;45.60;100896.28;5063395;28;4208;-66
2022/11/19 09:28:26;;;;;;;;;;;;;;;21.51;45.72;100895.81;5070263;28;4122;-66
2022/11/19 09:30:54;;;;;;;;;;;;;;;21.50;46.31;100897.19;5080786;28;4112;-68
2022/11/19 09:33:20;;;;;;;;;;;;;;;21.56;45.99;100910.38;5076819;28;4259;-65
2022/11/19 09:35:46;;;;;;;;;;;;;;;19.97;39.71;100896.72;5077984;28;5331;-67
2022/11/19 09:38:13;;;;;;;;;;;;;;;20.35;40.77;100897.09;5069342;28;4155;-66
2022/11/19 09:40:42;;;;;;;;;;;;;;;20.87;41.13;100906.69;5075264;28;4493;-68
2022/11/19 09:43:27;;;;;;;;;;;;;;;21.17;43.25;100912.31;5053645;28;4090;-66
2022/11/19 09:46:02;;;;;;;;;;;;;;;21.33;44.12;100910.13;5068830;28;4192;-66
2022/11/19 09:48:32;;;;;;;;;;;;;;;21.41;44.24;100906.16;5064365;28;4149;-66
2022/11/19 09:51:00;;;;;;;;;;;;;;;21.44;45.05;100908.47;5080358;28;5347;-66
2022/11/19 09:53:30;;;;;;;;;;;;;;;21.50;45.07;100905.09;5064481;28;4201;-67
2022/11/19 09:55:58;;;;;;;;;;;;;;;21.51;45.41;100903.72;5073162;28;4129;-66
2022/11/19 09:58:25;;;;;;;;;;;;;;;21.54;45.42;100902.38;5075396;28;5254;-66
2022/11/19 10:00:51;;;;;;;;;;;;;;;21.55;45.68;100892.34;5085819;28;4080;-66
2022/11/19 10:03:21;;;;;;;;;;;;;;;21.54;45.87;100879.34;5081834;28;5182;-66
2022/11/19 10:06:06;;;;;;;;;;;;;;;21.54;45.89;100888.72;5082526;28;4100;-66
2022/11/19 10:08:34;;;;;;;;;;;;;;;21.55;45.77;100877.94;5079090;28;4095;-66
2022/11/19 10:11:20;;;;;;;;;;;;;;;21.53;46.00;100872.06;5076366;28;4303;-66
2022/11/19 10:13:59;;;;;;;;;;;;;;;21.58;45.84;100867.97;5093964;28;4125;-66
2022/11/19 10:16:35;;;;;;;;;;;;;;;21.60;45.85;100858.66;5088159;28;4097;-66
2022/11/19 10:19:05;;;;;;;;;;;;;;;21.58;45.98;100861.47;5075981;28;4108;-67
2022/11/19 10:21:34;;;;;;;;;;;;;;;21.60;46.05;100856.53;5073624;28;4467;-67
2022/11/19 10:24:16;;;;;;;;;;;;;;;21.60;46.21;100859.44;5091659;28;4234;-66
2022/11/19 10:26:46;;;;;;;;;;;;;;;21.56;45.98;100853.50;5071141;28;4317;-66
2022/11/19 10:29:16;;;;;;;;;;;;;;;21.58;46.04;100856.47;5060155;28;5056;-66
2022/11/19 10:31:43;;;;;;;;;;;;;;;21.59;45.96;100860.06;5068688;28;4262;-66
2022/11/19 10:34:14;;;;;;;;;;;;;;;21.56;45.96;100852.75;5086999;28;4100;-66
2022/11/19 10:36:51;;;;;;;;;;;;;;;21.54;46.14;100853.41;5073618;28;5431;-68
2022/11/19 10:39:35;;;;;;;;;;;;;;;21.41;46.45;100845.66;5077825;28;5179;-66
2022/11/19 10:42:06;;;;;;;;;;;;;;;21.57;46.34;100843.44;5075983;28;5260;-66
2022/11/19 10:44:56;;;;;;;;;;;;;;;21.58;46.37;100847.06;5063903;28;6233;-66
2022/11/19 10:47:43;;;;;;;;;;;;;;;21.52;46.41;100842.53;5069763;28;4410;-67
2022/11/19 10:50:19;;;;;;;;;;;;;;;21.46;46.90;100838.66;5076459;28;4107;-57
2022/11/19 10:52:50;;;;;;;;;;;;;;;21.58;46.93;100833.41;5072037;28;4171;-67
2022/11/19 10:55:19;;;;;;;;;;;;;;;21.59;47.17;100834.88;5065118;28;4164;-70
2022/11/19 10:57:46;;;;;;;;;;;;;;;21.57;46.90;100831.91;5078633;28;3942;-70
2022/11/19 11:00:12;;;;;;;;;;;;;;;21.42;45.82;100824.09;5081955;28;4080;-70
2022/11/19 11:03:01;;;;;;;;;;;;;;;21.51;44.17;100834.56;5065274;28;4164;-70
2022/11/19 11:05:28;;;;;;;;;;;;;;;21.59;43.81;100828.38;5086752;28;3958;-69
2022/11/19 11:07:55;;;;;;;;;;;;;;;21.66;44.75;100819.31;5081112;28;4118;-69
2022/11/19 11:10:32;;;;;;;;;;;;;;;21.71;45.00;100811.56;5082802;28;3952;-69
2022/11/19 11:16:04;;;;;;;;;;;;;;;21.72;45.13;100802.28;5070889;28;4819;-70
2022/11/19 11:18:30;;;;;;;;;;;;;;;21.74;45.26;100798.75;5036074;28;5269;-69
2022/11/19 11:20:56;;;;;;;;;;;;;;;21.75;45.58;100800.94;5075002;28;3986;-69
2022/11/19 11:23:23;;;;;;;;;;;;;;;21.74;45.41;100793.72;5085522;28;4092;-70
2022/11/19 11:26:08;;;;;;;;;;;;;;;21.77;45.66;100782.25;5073733;28;5356;-70
2022/11/19 11:28:35;;;;;;;;;;;;;;;21.74;45.56;100782.19;5085714;28;4093;-69
2022/11/19 11:31:02;;;;;;;;;;;;;;;21.73;45.80;100785.72;5085506;28;4173;-70
2022/11/19 11:33:52;;;;;;;;;;;;;;;21.72;45.84;100779.22;5092497;28;5185;-68
2022/11/19 11:36:19;;;;;;;;;;;;;;;21.73;45.86;100783.56;5084636;28;4022;-69
2022/11/19 11:38:46;;;;;;;;;;;;;;;21.74;45.64;100772.81;5072128;28;4194;-70
2022/11/19 11:41:16;;;;;;;;;;;;;;;21.76;45.71;100767.09;5078421;28;4182;-69
2022/11/19 11:44:16;;;;;;;;;;;;;;;21.80;45.81;100761.50;5088081;28;4173;-69
2022/11/19 11:46:50;;;;;;;;;;;;;;;21.81;45.91;100762.25;5056104;28;4135;-69
2022/11/19 11:49:19;;;;;;;;;;;;;;;21.82;45.86;100752.94;5075323;28;5212;-69
2022/11/19 11:51:45;;;;;;;;;;;;;;;21.86;45.76;100758.84;5092879;28;4066;-69
2022/11/19 11:54:16;;;;;;;;;;;;;;;21.88;45.68;100763.97;5069897;28;5197;-69
2022/11/19 11:56:43;;;;;;;;;;;;;;;21.85;45.96;100759.50;5079679;28;4495;-69
2022/11/19 11:59:14;;;;;;;;;;;;;;;21.87;45.98;100757.44;5079613;28;4147;-69
2022/11/19 12:01:41;;;;;;;;;;;;;;;21.89;45.80;100751.03;5079115;28;4250;-68
2022/11/19 12:04:10;;;;;;;;;;;;;;;21.91;45.73;100753.97;5077646;28;4160;-69
2022/11/19 12:06:40;;;;;;;;;;;;;;;21.93;45.71;100765.59;5080069;28;4323;-69
2022/11/19 12:09:15;;;;;;;;;;;;;;;21.96;45.95;100765.00;5086075;28;4487;-69
2022/11/19 12:11:54;;;;;;;;;;;;;;;21.95;45.94;100759.91;5088231;28;5286;-69
2022/11/19 12:14:20;;;;;;;;;;;;;;;21.96;46.12;100755.63;5082416;27;4147;-69
2022/11/19 12:17:01;;;;;;;;;;;;;;;21.98;46.19;100764.34;5083065;28;4190;-69
2022/11/19 12:19:31;;;;;;;;;;;;;;;22.02;46.38;100755.84;5064307;28;4152;-69
2022/11/19 12:22:03;;;;;;;;;;;;;;;22.03;45.87;100768.84;5070038;28;4207;-69
2022/11/19 12:24:35;;;;;;;;;;;;;;;22.03;46.45;100768.84;5076648;28;4102;-69
2022/11/19 12:27:06;;;;;;;;;;;;;;;22.04;46.34;100761.69;5077761;28;4133;-68
2022/11/19 12:29:44;;;;;;;;;;;;;;;22.04;46.71;100758.81;5070615;28;4080;-68
2022/11/19 12:32:30;;;;;;;;;;;;;;;22.06;46.74;100772.56;5081441;28;4120;-69
2022/11/19 12:35:14;;;;;;;;;;;;;;;22.06;46.77;100764.66;5081613;28;4173;-69
2022/11/19 12:37:41;;;;;;;;;;;;;;;22.07;46.34;100751.72;5079221;28;4132;-69
2022/11/19 12:40:19;;;;;;;;;;;;;;;22.08;46.39;100761.09;5080156;28;4042;-69
2022/11/19 12:42:48;;;;;;;;;;;;;;;22.09;46.52;100760.44;5063816;28;5180;-69
2022/11/19 12:45:35;;;;;;;;;;;;;;;22.07;46.35;100760.38;5068218;28;4202;-69
2022/11/19 12:48:14;;;;;;;;;;;;;;;22.07;46.53;100754.59;5076641;28;4009;-69
2022/11/19 12:50:59;;;;;;;;;;;;;;;22.05;46.46;100750.91;5079061;28;4031;-69
2022/11/19 12:53:31;;;;;;;;;;;;;;;22.03;46.64;100760.22;5052120;28;3892;-69
2022/11/19 12:56:07;;;;;;;;;;;;;;;22.04;46.47;100761.69;5083946;28;5040;-69
2022/11/19 12:58:33;;;;;;;;;;;;;;;21.98;46.41;100749.94;5059216;28;4227;-69
2022/11/19 13:01:02;;;;;;;;;;;;;;;21.99;46.43;100754.31;5080851;28;4095;-69
2022/11/19 13:03:47;;;;;;;;;;;;;;;22.00;46.38;100755.03;5063649;28;4135;-69
2022/11/19 13:06:18;;;;;;;;;;;;;;;22.01;46.64;100751.47;5072563;28;5201;-69
2022/11/19 13:08:52;;;;;;;;;;;;;;;22.02;46.41;100749.34;5062626;28;4283;-69
2022/11/19 13:11:20;;;;;;;;;;;;;;;22.04;46.41;100746.56;5088066;28;5119;-69
2022/11/19 13:13:47;;;;;;;;;;;;;;;22.05;46.57;100751.63;5079251;28;4049;-69
2022/11/19 13:16:14;;;;;;;;;;;;;;;22.07;46.59;100748.09;5078936;28;4047;-69
2022/11/19 13:18:42;;;;;;;;;;;;;;;22.06;46.59;100747.38;5063264;28;4332;-68